createdAt,value
2022-12-14T04:00:15.372Z,9.77
2022-12-14T04:02:53.669Z,9.43
2022-12-14T04:05:31.456Z,9.70
2022-12-14T04:08:06.293Z,12.10
2022-12-14T04:10:58.369Z,11.23
2022-12-14T04:13:48.991Z,8.50
2022-12-14T04:16:43.431Z,8.53
2022-12-14T04:19:20.715Z,9.40
2022-12-14T04:21:54.291Z,10.73
2022-12-14T04:24:44.881Z,10.30
2022-12-14T04:27:18.570Z,11.27
2022-12-14T04:29:58.146Z,10.40
2022-12-14T04:32:32.830Z,9.37
2022-12-14T04:35:07.697Z,11.63
2022-12-14T04:37:38.917Z,10.27
2022-12-14T04:40:10.279Z,10.37
2022-12-14T04:42:44.844Z,10.37
2022-12-14T04:45:17.821Z,8.83
2022-12-14T04:47:53.873Z,9.47
2022-12-14T04:50:27.840Z,9.27
2022-12-14T04:53:01.573Z,11.47
2022-12-14T04:55:36.198Z,11.57
2022-12-14T04:58:10.353Z,7.90
2022-12-14T05:00:46.505Z,14.40
2022-12-14T05:03:26.917Z,10.80
2022-12-14T05:06:06.496Z,9.60
2022-12-14T05:09:02.561Z,9.13
2022-12-14T05:14:32.737Z,8.50
2022-12-14T05:17:08.213Z,9.73
2022-12-14T05:19:37.398Z,11.77
2022-12-14T05:22:08.749Z,11.10
2022-12-14T05:24:36.917Z,9.90
2022-12-14T05:27:05.022Z,16.20
2022-12-14T05:29:32.920Z,11.63
2022-12-14T05:32:01.716Z,12.53
2022-12-14T05:34:29.581Z,11.53
2022-12-14T05:36:58.165Z,11.10
2022-12-14T05:39:27.468Z,10.77
2022-12-14T05:41:55.337Z,15.20
2022-12-14T05:44:23.326Z,10.20
2022-12-14T05:46:51.190Z,11.80
2022-12-14T05:49:19.114Z,9.83
2022-12-14T05:51:47.058Z,15.83
2022-12-14T05:54:15.697Z,14.60
2022-12-14T05:56:44.896Z,11.60
2022-12-14T05:59:15.555Z,11.63
2022-12-14T06:01:44.046Z,10.57
2022-12-14T06:04:12.263Z,13.33
2022-12-14T06:06:40.326Z,12.60
2022-12-14T06:09:09.578Z,11.77
2022-12-14T06:11:39.357Z,13.97
2022-12-14T06:14:09.534Z,11.17
2022-12-14T06:16:40.239Z,12.73
2022-12-14T06:19:08.659Z,12.20
2022-12-14T06:21:38.362Z,13.10
2022-12-14T06:24:07.439Z,11.47
2022-12-14T06:26:37.721Z,12.53
2022-12-14T06:29:05.811Z,11.33
2022-12-14T06:31:35.375Z,11.47
2022-12-14T06:34:04.602Z,12.00
2022-12-14T06:36:34.102Z,10.40
2022-12-14T06:39:03.942Z,12.07
2022-12-14T06:41:32.087Z,13.03
2022-12-14T06:44:05.362Z,11.17
2022-12-14T06:46:35.915Z,12.40
2022-12-14T06:49:05.437Z,13.53
2022-12-14T06:51:33.785Z,12.83
2022-12-14T06:54:01.635Z,13.17
2022-12-14T06:56:29.672Z,12.73
2022-12-14T06:58:57.929Z,12.73
2022-12-14T07:01:26.851Z,12.67
2022-12-14T07:03:58.037Z,11.43
2022-12-14T07:06:27.782Z,11.00
2022-12-14T07:08:56.869Z,15.00
2022-12-14T07:11:26.116Z,13.03
2022-12-14T07:13:54.423Z,15.57
2022-12-14T07:16:23.893Z,17.97
2022-12-14T07:18:52.296Z,13.80
2022-12-14T07:21:22.909Z,17.13
2022-12-14T07:23:52.694Z,13.10
2022-12-14T07:26:22.207Z,15.43
2022-12-14T07:28:50.414Z,17.43
2022-12-14T07:31:20.762Z,14.77
2022-12-14T07:33:49.069Z,14.00
2022-12-14T07:36:18.768Z,13.13
2022-12-14T07:38:50.166Z,15.63
2022-12-14T07:41:22.733Z,14.10
2022-12-14T07:43:51.954Z,16.20
2022-12-14T07:46:25.458Z,14.90
2022-12-14T07:48:55.578Z,15.33
2022-12-14T07:51:25.921Z,18.47
2022-12-14T07:53:55.781Z,14.13
2022-12-14T07:56:25.903Z,15.50
2022-12-14T07:58:56.065Z,18.40
2022-12-14T08:01:25.777Z,14.47
2022-12-14T08:03:56.283Z,14.93
2022-12-14T08:06:26.642Z,14.30
2022-12-14T08:08:56.516Z,16.07
2022-12-14T08:11:25.395Z,15.13
2022-12-14T08:13:54.376Z,20.10
2022-12-14T08:16:22.777Z,14.47
2022-12-14T08:18:53.242Z,15.90
2022-12-14T08:21:22.166Z,17.63
2022-12-14T08:23:50.983Z,15.10
2022-12-14T08:26:20.552Z,16.23
2022-12-14T08:28:49.079Z,15.57
2022-12-14T08:31:18.381Z,15.53
2022-12-14T08:33:47.279Z,16.63
2022-12-14T08:36:16.692Z,17.73
2022-12-14T08:38:44.838Z,16.33
2022-12-14T08:41:14.410Z,16.10
2022-12-14T08:43:56.876Z,15.70
2022-12-14T08:46:25.691Z,16.53
2022-12-14T08:48:55.421Z,15.13
2022-12-14T08:51:24.633Z,15.97
2022-12-14T08:53:53.965Z,15.27
2022-12-14T08:56:24.022Z,14.57
2022-12-14T08:58:52.509Z,13.43
2022-12-14T09:01:28.191Z,14.33
2022-12-14T09:04:03.677Z,15.10
2022-12-14T09:06:31.516Z,17.73
2022-12-14T09:08:59.336Z,17.77
2022-12-14T09:11:27.195Z,16.43
2022-12-14T09:13:55.439Z,16.23
2022-12-14T09:16:27.107Z,16.63
2022-12-14T09:18:55.752Z,14.30
2022-12-14T09:21:23.993Z,15.90
2022-12-14T09:23:57.348Z,15.83
2022-12-14T09:26:27.786Z,15.93
2022-12-14T09:28:57.827Z,15.90
2022-12-14T09:31:28.411Z,14.80
2022-12-14T09:33:56.876Z,16.33
2022-12-14T09:36:28.179Z,15.73
2022-12-14T09:38:57.602Z,15.33
2022-12-14T09:41:50.919Z,15.30
2022-12-14T09:44:26.383Z,16.97
2022-12-14T09:47:03.297Z,15.10
2022-12-14T09:49:33.179Z,17.87
2022-12-14T09:52:03.381Z,14.73
2022-12-14T09:54:34.062Z,13.70
2022-12-14T09:57:06.563Z,16.53
2022-12-14T09:59:35.354Z,15.67
2022-12-14T10:02:30.780Z,13.27
2022-12-14T10:05:18.861Z,15.10
2022-12-14T10:07:54.871Z,15.90
2022-12-14T10:10:29.502Z,14.37
2022-12-14T10:13:07.534Z,14.13
2022-12-14T10:15:41.471Z,14.70
2022-12-14T10:18:57.636Z,17.77
2022-12-14T10:21:17.041Z,15.50
2022-12-14T10:23:52.474Z,14.33
2022-12-14T10:26:23.765Z,13.80
2022-12-14T10:29:01.556Z,14.73
2022-12-14T10:31:35.915Z,13.93
2022-12-14T10:34:20.829Z,12.50
2022-12-14T10:36:54.463Z,16.90
2022-12-14T10:39:31.483Z,14.83
2022-12-14T10:42:04.277Z,14.40
2022-12-14T10:44:39.905Z,12.87
2022-12-14T10:47:15.267Z,14.53
2022-12-14T10:49:51.904Z,13.93
2022-12-14T10:52:23.271Z,16.23
2022-12-14T10:54:55.405Z,14.80
2022-12-14T10:57:26.291Z,15.87
2022-12-14T11:00:07.781Z,16.70
2022-12-14T11:02:41.078Z,15.17
2022-12-14T11:05:26.975Z,15.80
2022-12-14T11:07:56.652Z,13.77
2022-12-14T11:10:27.233Z,15.30
2022-12-14T11:13:00.041Z,14.13
2022-12-14T11:15:31.778Z,14.33
2022-12-14T11:18:06.157Z,15.03
2022-12-14T11:20:35.507Z,16.80
2022-12-14T11:23:18.476Z,14.60
2022-12-14T11:25:48.147Z,14.13
2022-12-14T11:28:36.428Z,16.20
2022-12-14T11:31:08.026Z,13.70
2022-12-14T11:33:38.999Z,16.67
2022-12-14T11:36:09.811Z,13.00
2022-12-14T11:38:37.984Z,15.10
2022-12-14T11:41:11.560Z,16.00
2022-12-14T11:43:40.421Z,14.37
2022-12-14T11:46:08.601Z,12.23
2022-12-14T11:48:39.126Z,14.60
2022-12-14T11:51:13.166Z,13.30
2022-12-14T11:53:42.049Z,12.17
2022-12-14T11:56:15.087Z,12.80
2022-12-14T11:58:49.812Z,14.93
2022-12-14T12:01:21.085Z,13.10
2022-12-14T12:03:51.689Z,12.30
2022-12-14T12:06:24.475Z,12.90
2022-12-14T12:08:57.064Z,12.97
2022-12-14T12:11:27.594Z,15.20
2022-12-14T12:14:00.477Z,13.43
2022-12-14T12:16:32.613Z,14.73
2022-12-14T12:19:11.879Z,12.90
2022-12-14T12:21:44.594Z,14.73
2022-12-14T12:24:19.510Z,11.00
2022-12-14T12:26:50.853Z,13.80
2022-12-14T12:29:27.542Z,13.93
2022-12-14T12:31:58.737Z,13.97
2022-12-14T12:34:32.345Z,13.07
2022-12-14T12:40:01.638Z,14.63
2022-12-14T12:42:41.511Z,12.40
2022-12-14T12:45:17.476Z,12.87
2022-12-14T12:47:49.586Z,13.67
2022-12-14T12:50:21.431Z,13.60
2022-12-14T12:53:02.627Z,14.13
2022-12-14T12:55:35.444Z,12.97
2022-12-14T12:58:04.884Z,13.73
2022-12-14T13:00:34.562Z,12.67
2022-12-14T13:03:09.895Z,12.37
2022-12-14T13:05:46.766Z,12.33
2022-12-14T13:08:23.564Z,12.47
2022-12-14T13:11:25.602Z,12.03
2022-12-14T13:13:46.471Z,13.33
2022-12-14T13:16:26.156Z,14.53
2022-12-14T13:19:13.225Z,14.90
2022-12-14T13:21:51.242Z,13.23
2022-12-14T13:24:22.641Z,12.77
2022-12-14T13:27:18.193Z,11.97
2022-12-14T13:30:04.985Z,12.43
2022-12-14T13:32:46.717Z,13.83
2022-12-14T13:35:34.405Z,12.50
2022-12-14T13:38:18.362Z,11.60
2022-12-14T13:41:08.593Z,12.50
2022-12-14T13:44:06.243Z,14.17
2022-12-14T13:46:34.375Z,13.03
2022-12-14T13:49:04.995Z,11.73
2022-12-14T13:51:36.112Z,10.23
2022-12-14T13:54:07.799Z,12.53
2022-12-14T13:56:40.114Z,12.57
2022-12-14T13:59:27.636Z,13.80
2022-12-14T14:01:58.427Z,11.73
2022-12-14T14:04:29.498Z,12.80
2022-12-14T14:07:20.360Z,14.07
2022-12-14T14:10:03.266Z,12.93
2022-12-14T14:12:46.031Z,12.90
2022-12-14T14:16:11.272Z,12.10
2022-12-14T14:18:37.999Z,11.70
2022-12-14T14:21:31.246Z,11.60
2022-12-14T14:24:00.948Z,18.40
2022-12-14T14:26:32.451Z,18.17
2022-12-14T14:29:25.594Z,11.83
2022-12-14T14:32:01.588Z,15.23
2022-12-14T14:34:37.871Z,16.50
2022-12-14T14:37:23.447Z,17.77
2022-12-14T14:40:05.911Z,14.00
2022-12-14T14:42:48.063Z,17.73
2022-12-14T14:45:31.033Z,20.00
2022-12-14T14:48:02.017Z,17.23
2022-12-14T14:50:33.746Z,13.47
2022-12-14T14:53:13.964Z,17.70
2022-12-14T14:55:53.967Z,13.57
2022-12-14T14:58:27.062Z,16.87
2022-12-14T15:01:11.006Z,13.37
2022-12-14T15:03:51.566Z,12.67
2022-12-14T15:06:23.958Z,17.47
2022-12-14T15:08:58.138Z,14.00
2022-12-14T15:11:29.209Z,14.87
2022-12-14T15:14:02.812Z,15.10
2022-12-14T15:16:34.136Z,17.93
2022-12-14T15:19:24.170Z,17.70
2022-12-14T15:21:54.620Z,18.13
2022-12-14T15:24:23.947Z,16.90
2022-12-14T15:26:51.818Z,18.73
2022-12-14T15:29:26.560Z,17.60
2022-12-14T15:31:59.917Z,18.73
2022-12-14T15:34:28.482Z,16.87
2022-12-14T15:36:57.539Z,15.13
2022-12-14T15:39:40.135Z,18.80
2022-12-14T15:42:13.174Z,17.10
2022-12-14T15:44:50.173Z,19.33
2022-12-14T15:47:28.626Z,26.90
2022-12-14T15:50:14.273Z,28.93
2022-12-14T15:52:43.599Z,26.70
2022-12-14T15:55:32.154Z,27.77
2022-12-14T15:58:06.469Z,26.20
2022-12-14T16:00:37.302Z,27.87
2022-12-14T16:03:16.723Z,29.73
2022-12-14T16:05:44.820Z,54.57
2022-12-14T16:08:16.030Z,42.83
2022-12-14T16:10:45.825Z,56.37
2022-12-14T16:13:20.497Z,37.03
2022-12-14T16:15:50.087Z,90.77
2022-12-14T16:18:19.201Z,26.60
2022-12-14T16:20:57.630Z,27.67
2022-12-14T16:23:31.303Z,27.03
2022-12-14T16:26:03.049Z,21.20
2022-12-14T16:28:33.157Z,26.30
2022-12-14T16:31:06.940Z,28.17
2022-12-14T16:33:36.548Z,26.00
2022-12-14T16:36:07.916Z,25.60
2022-12-14T16:38:56.279Z,23.57
2022-12-14T16:41:36.059Z,26.83
2022-12-14T16:44:06.653Z,23.70
2022-12-14T16:46:35.936Z,27.30
2022-12-14T16:49:23.111Z,29.47
2022-12-14T16:52:09.250Z,27.70
2022-12-14T16:54:38.669Z,30.50
2022-12-14T16:57:17.619Z,74.90
2022-12-14T16:59:47.754Z,27.93
2022-12-14T17:02:29.926Z,25.83
2022-12-14T17:04:59.432Z,23.53
2022-12-14T17:07:30.886Z,22.83
2022-12-14T17:09:58.889Z,20.90
2022-12-14T17:12:27.684Z,23.27
2022-12-14T17:14:55.685Z,26.47
2022-12-14T17:17:29.722Z,30.23
2022-12-14T17:19:57.667Z,33.07
2022-12-14T17:22:28.557Z,30.07
2022-12-14T17:24:56.537Z,29.20
2022-12-14T17:27:26.574Z,32.53
2022-12-14T17:29:55.228Z,30.50
2022-12-14T17:32:25.507Z,38.40
2022-12-14T17:34:55.113Z,35.57
2022-12-14T17:37:24.347Z,32.33
2022-12-14T17:39:52.618Z,28.03
2022-12-14T17:42:22.566Z,22.77
2022-12-14T17:44:53.433Z,24.70
2022-12-14T17:47:22.364Z,22.57
2022-12-14T17:49:50.283Z,23.10
2022-12-14T17:52:22.146Z,25.93
2022-12-14T17:54:50.172Z,27.23
2022-12-14T17:57:22.440Z,28.90
2022-12-14T18:00:16.012Z,22.87
2022-12-14T18:02:45.405Z,25.77
2022-12-14T18:05:19.040Z,21.53
2022-12-14T18:07:49.610Z,24.43
2022-12-14T18:10:19.378Z,24.70
2022-12-14T18:12:47.303Z,33.13
2022-12-14T18:15:21.077Z,26.77
2022-12-14T18:17:49.694Z,23.43
2022-12-14T18:20:19.159Z,23.97
2022-12-14T18:22:50.033Z,23.20
2022-12-14T18:25:31.571Z,22.30
2022-12-14T18:28:00.944Z,27.40
2022-12-14T18:30:34.879Z,24.27
2022-12-14T18:33:05.027Z,25.40
2022-12-14T18:35:34.261Z,25.40
2022-12-14T18:38:03.576Z,30.47
2022-12-14T18:40:32.024Z,37.00
2022-12-14T18:43:01.266Z,24.53
2022-12-14T18:45:31.574Z,26.53
2022-12-14T18:48:00.642Z,24.17
2022-12-14T18:50:29.544Z,24.83
2022-12-14T18:52:57.751Z,21.23
2022-12-14T18:55:28.901Z,22.57
2022-12-14T18:57:59.431Z,26.43
2022-12-14T19:00:30.052Z,34.67
2022-12-14T19:02:58.566Z,90.13
2022-12-14T19:05:26.987Z,153.23
2022-12-14T19:07:55.274Z,46.20
2022-12-14T19:10:24.833Z,123.07
2022-12-14T19:12:54.130Z,147.70
2022-12-14T19:15:23.896Z,63.70
2022-12-14T19:17:52.306Z,47.97
2022-12-14T19:20:21.142Z,55.60
2022-12-14T19:22:49.622Z,31.50
2022-12-14T19:25:18.481Z,35.10
2022-12-14T19:28:26.172Z,38.30
2022-12-14T19:30:35.956Z,34.50
2022-12-14T19:33:04.026Z,36.20
2022-12-14T19:35:32.278Z,27.17
2022-12-14T19:38:00.391Z,26.30
2022-12-14T19:40:28.348Z,24.33
2022-12-14T19:42:56.240Z,33.10
2022-12-14T19:45:24.192Z,25.20
2022-12-14T19:47:53.406Z,30.50
2022-12-14T19:50:21.399Z,25.17
2022-12-14T19:52:49.250Z,26.13
2022-12-14T19:55:17.336Z,28.60
2022-12-14T19:57:45.194Z,26.27
2022-12-14T20:00:14.361Z,32.53
2022-12-14T20:02:42.424Z,25.70
2022-12-14T20:05:12.121Z,30.97
2022-12-14T20:07:43.935Z,43.10
2022-12-14T20:10:12.050Z,49.67
2022-12-14T20:12:41.022Z,31.50
2022-12-14T20:15:09.454Z,24.43
2022-12-14T20:17:47.171Z,28.13
2022-12-14T20:20:16.690Z,22.57
2022-12-14T20:22:44.570Z,28.17
2022-12-14T20:25:12.452Z,31.47
2022-12-14T20:27:41.009Z,35.80
2022-12-14T20:30:10.638Z,31.60
2022-12-14T20:32:40.664Z,26.63
2022-12-14T20:35:10.834Z,24.47
2022-12-14T20:37:42.773Z,24.23
2022-12-14T20:40:12.894Z,23.80
2022-12-14T20:43:06.825Z,26.60
2022-12-14T20:45:38.698Z,25.67
2022-12-14T20:48:07.498Z,26.83
2022-12-14T20:50:35.726Z,29.00
2022-12-14T20:53:06.367Z,29.60
2022-12-14T20:55:35.029Z,31.23
2022-12-14T20:58:03.181Z,29.63
2022-12-14T21:00:31.226Z,39.37
2022-12-14T21:02:59.326Z,52.53
2022-12-14T21:05:27.245Z,34.13
2022-12-14T21:07:55.162Z,31.63
2022-12-14T21:10:24.388Z,30.03
2022-12-14T21:12:51.292Z,33.43
2022-12-14T21:15:19.245Z,28.17
2022-12-14T21:17:47.191Z,29.33
2022-12-14T21:20:15.051Z,29.13
2022-12-14T21:22:42.984Z,25.93
2022-12-14T21:25:11.151Z,22.17
2022-12-14T21:27:40.793Z,23.13
2022-12-14T21:30:11.006Z,25.20
2022-12-14T21:32:39.650Z,26.53
2022-12-14T21:35:08.812Z,26.57
2022-12-14T21:37:39.622Z,39.57
2022-12-14T21:40:28.898Z,30.13
2022-12-14T21:42:57.169Z,26.87
2022-12-14T21:45:25.177Z,24.17
2022-12-14T21:47:53.081Z,24.50
2022-12-14T21:50:21.949Z,23.13
2022-12-14T21:52:49.835Z,23.13
2022-12-14T21:55:17.837Z,23.20
2022-12-14T21:58:03.449Z,22.33
2022-12-14T22:00:38.563Z,28.77
2022-12-14T22:03:06.543Z,31.20
2022-12-14T22:05:34.888Z,28.30
2022-12-14T22:08:02.751Z,24.57
2022-12-14T22:10:30.703Z,20.90
2022-12-14T22:12:58.634Z,25.63
2022-12-14T22:15:27.214Z,25.20
2022-12-14T22:17:56.533Z,21.23
2022-12-14T22:20:24.715Z,21.60
2022-12-14T22:22:52.792Z,21.90
2022-12-14T22:25:20.669Z,24.47
2022-12-14T22:27:50.150Z,25.20
2022-12-14T22:30:18.533Z,28.43
2022-12-14T22:32:46.392Z,23.87
2022-12-14T22:35:15.742Z,23.03
2022-12-14T22:37:43.579Z,21.63
2022-12-14T22:40:11.969Z,22.87
2022-12-14T22:42:39.812Z,21.37
2022-12-14T22:45:08.602Z,19.67
2022-12-14T22:47:36.444Z,22.13
2022-12-14T22:50:04.742Z,22.03
2022-12-14T22:52:33.935Z,21.17
2022-12-14T22:55:01.812Z,19.43
2022-12-14T22:57:30.889Z,26.53
2022-12-14T23:00:02.177Z,21.73
